sensor_id;sensor_type;location;lat;lon;timestamp;temperature;humidity
24814;DHT22;12904;50.088;11.414;2023-11-21T00:02:20;7.60;99.90
24814;DHT22;12904;50.088;11.414;2023-11-21T00:04:47;7.60;99.90
24814;DHT22;12904;50.088;11.414;2023-11-21T00:07:13;7.60;99.90
24814;DHT22;12904;50.088;11.414;2023-11-21T00:09:40;7.60;99.90
24814;DHT22;12904;50.088;11.414;2023-11-21T00:12:07;7.60;99.90
24814;DHT22;12904;50.088;11.414;2023-11-21T00:14:38;7.50;99.90
24814;DHT22;12904;50.088;11.414;2023-11-21T00:17:04;7.50;99.90
24814;DHT22;12904;50.088;11.414;2023-11-21T00:19:31;7.50;99.90
24814;DHT22;12904;50.088;11.414;2023-11-21T00:21:57;7.50;99.90
24814;DHT22;12904;50.088;11.414;2023-11-21T00:24:24;7.50;99.90
24814;DHT22;12904;50.088;11.414;2023-11-21T00:26:50;7.50;99.90
24814;DHT22;12904;50.088;11.414;2023-11-21T00:29:16;7.50;99.90
24814;DHT22;12904;50.088;11.414;2023-11-21T00:31:43;7.50;99.90
24814;DHT22;12904;50.088;11.414;2023-11-21T00:34:11;7.60;99.90
24814;DHT22;12904;50.088;11.414;2023-11-21T00:36:37;7.60;99.90
24814;DHT22;12904;50.088;11.414;2023-11-21T00:39:03;7.60;99.90
24814;DHT22;12904;50.088;11.414;2023-11-21T00:41:29;7.60;99.90
24814;DHT22;12904;50.088;11.414;2023-11-21T00:43:54;7.60;99.90
24814;DHT22;12904;50.088;11.414;2023-11-21T00:46:20;7.60;99.90
24814;DHT22;12904;50.088;11.414;2023-11-21T00:48:46;7.60;99.90
24814;DHT22;12904;50.088;11.414;2023-11-21T00:51:12;7.60;99.90
24814;DHT22;12904;50.088;11.414;2023-11-21T00:53:37;7.60;99.90
24814;DHT22;12904;50.088;11.414;2023-11-21T00:56:03;7.60;99.90
24814;DHT22;12904;50.088;11.414;2023-11-21T00:58:29;7.60;99.90
24814;DHT22;12904;50.088;11.414;2023-11-21T01:00:55;7.60;99.90
24814;DHT22;12904;50.088;11.414;2023-11-21T01:03:21;7.60;99.90
24814;DHT22;12904;50.088;11.414;2023-11-21T01:05:47;7.60;99.90
24814;DHT22;12904;50.088;11.414;2023-11-21T01:08:15;7.60;99.90
24814;DHT22;12904;50.088;11.414;2023-11-21T01:10:40;7.60;99.90
24814;DHT22;12904;50.088;11.414;2023-11-21T01:13:06;7.60;99.90
24814;DHT22;12904;50.088;11.414;2023-11-21T01:15:33;7.60;99.90
24814;DHT22;12904;50.088;11.414;2023-11-21T01:17:59;7.60;99.90
24814;DHT22;12904;50.088;11.414;2023-11-21T01:20:25;7.60;99.90
24814;DHT22;12904;50.088;11.414;2023-11-21T01:22:51;7.60;99.90
24814;DHT22;12904;50.088;11.414;2023-11-21T01:25:17;7.60;99.90
24814;DHT22;12904;50.088;11.414;2023-11-21T01:27:43;7.60;99.90
24814;DHT22;12904;50.088;11.414;2023-11-21T01:30:09;7.60;99.90
24814;DHT22;12904;50.088;11.414;2023-11-21T01:32:38;7.60;99.90
24814;DHT22;12904;50.088;11.414;2023-11-21T01:35:05;7.60;99.90
24814;DHT22;12904;50.088;11.414;2023-11-21T01:37:32;7.60;99.90
24814;DHT22;12904;50.088;11.414;2023-11-21T01:39:58;7.60;99.90
24814;DHT22;12904;50.088;11.414;2023-11-21T01:42:24;7.60;99.90
24814;DHT22;12904;50.088;11.414;2023-11-21T01:44:50;7.60;99.90
24814;DHT22;12904;50.088;11.414;2023-11-21T01:47:16;7.60;99.90
24814;DHT22;12904;50.088;11.414;2023-11-21T01:49:44;7.60;99.90
24814;DHT22;12904;50.088;11.414;2023-11-21T01:52:10;7.50;99.90
24814;DHT22;12904;50.088;11.414;2023-11-21T01:54:37;7.50;99.90
24814;DHT22;12904;50.088;11.414;2023-11-21T01:57:04;7.50;99.90
24814;DHT22;12904;50.088;11.414;2023-11-21T01:59:36;7.50;99.90
24814;DHT22;12904;50.088;11.414;2023-11-21T02:02:06;7.50;99.90
24814;DHT22;12904;50.088;11.414;2023-11-21T02:04:35;7.50;99.90
24814;DHT22;12904;50.088;11.414;2023-11-21T02:07:04;7.50;99.90
24814;DHT22;12904;50.088;11.414;2023-11-21T02:09:31;7.50;99.90
24814;DHT22;12904;50.088;11.414;2023-11-21T02:11:58;7.50;99.90
24814;DHT22;12904;50.088;11.414;2023-11-21T02:14:25;7.60;99.90
24814;DHT22;12904;50.088;11.414;2023-11-21T02:16:52;7.60;99.90
24814;DHT22;12904;50.088;11.414;2023-11-21T02:19:20;7.60;99.90
24814;DHT22;12904;50.088;11.414;2023-11-21T02:21:51;7.60;99.90
24814;DHT22;12904;50.088;11.414;2023-11-21T02:24:26;7.60;99.90
24814;DHT22;12904;50.088;11.414;2023-11-21T02:26:52;7.60;99.90
24814;DHT22;12904;50.088;11.414;2023-11-21T02:29:19;7.60;99.90
24814;DHT22;12904;50.088;11.414;2023-11-21T02:31:52;7.60;99.90
24814;DHT22;12904;50.088;11.414;2023-11-21T02:34:20;7.60;99.90
24814;DHT22;12904;50.088;11.414;2023-11-21T02:36:46;7.60;99.90
24814;DHT22;12904;50.088;11.414;2023-11-21T02:39:13;7.60;99.90
24814;DHT22;12904;50.088;11.414;2023-11-21T02:41:38;7.60;99.90
24814;DHT22;12904;50.088;11.414;2023-11-21T02:44:08;7.60;99.90
24814;DHT22;12904;50.088;11.414;2023-11-21T02:46:34;7.60;99.90
24814;DHT22;12904;50.088;11.414;2023-11-21T02:49:04;7.60;99.90
24814;DHT22;12904;50.088;11.414;2023-11-21T02:51:31;7.60;99.90
24814;DHT22;12904;50.088;11.414;2023-11-21T02:53:57;7.60;99.90
24814;DHT22;12904;50.088;11.414;2023-11-21T02:56:26;7.60;99.90
24814;DHT22;12904;50.088;11.414;2023-11-21T02:58:56;7.60;99.90
24814;DHT22;12904;50.088;11.414;2023-11-21T03:01:22;7.60;99.90
24814;DHT22;12904;50.088;11.414;2023-11-21T03:03:49;7.60;99.90
24814;DHT22;12904;50.088;11.414;2023-11-21T03:06:19;7.70;99.90
24814;DHT22;12904;50.088;11.414;2023-11-21T03:08:45;7.70;99.90
24814;DHT22;12904;50.088;11.414;2023-11-21T03:11:12;7.70;99.90
24814;DHT22;12904;50.088;11.414;2023-11-21T03:13:39;7.80;99.90
24814;DHT22;12904;50.088;11.414;2023-11-21T03:16:08;7.70;99.90
24814;DHT22;12904;50.088;11.414;2023-11-21T03:18:34;7.70;99.90
24814;DHT22;12904;50.088;11.414;2023-11-21T03:20:59;7.70;99.90
24814;DHT22;12904;50.088;11.414;2023-11-21T03:23:25;7.70;99.90
24814;DHT22;12904;50.088;11.414;2023-11-21T03:25:50;7.70;99.90
24814;DHT22;12904;50.088;11.414;2023-11-21T03:28:16;7.70;99.90
24814;DHT22;12904;50.088;11.414;2023-11-21T03:30:41;7.70;99.90
24814;DHT22;12904;50.088;11.414;2023-11-21T03:33:07;7.70;99.90
24814;DHT22;12904;50.088;11.414;2023-11-21T03:35:33;7.70;99.90
24814;DHT22;12904;50.088;11.414;2023-11-21T03:37:58;7.70;99.90
24814;DHT22;12904;50.088;11.414;2023-11-21T03:40:24;7.80;99.90
24814;DHT22;12904;50.088;11.414;2023-11-21T03:42:50;7.70;99.90
24814;DHT22;12904;50.088;11.414;2023-11-21T03:45:16;7.80;99.90
24814;DHT22;12904;50.088;11.414;2023-11-21T03:47:42;7.80;99.90
24814;DHT22;12904;50.088;11.414;2023-11-21T03:50:08;7.80;99.90
24814;DHT22;12904;50.088;11.414;2023-11-21T03:52:37;7.80;99.90
24814;DHT22;12904;50.088;11.414;2023-11-21T03:55:03;7.80;99.90
24814;DHT22;12904;50.088;11.414;2023-11-21T03:57:29;7.80;99.90
24814;DHT22;12904;50.088;11.414;2023-11-21T03:59:55;7.80;99.90
24814;DHT22;12904;50.088;11.414;2023-11-21T04:02:20;7.80;99.90
24814;DHT22;12904;50.088;11.414;2023-11-21T04:04:46;7.80;99.90
24814;DHT22;12904;50.088;11.414;2023-11-21T04:07:12;7.80;99.90
24814;DHT22;12904;50.088;11.414;2023-11-21T04:09:42;7.80;99.90
24814;DHT22;12904;50.088;11.414;2023-11-21T04:12:07;7.80;99.90
24814;DHT22;12904;50.088;11.414;2023-11-21T04:14:35;7.80;99.90
24814;DHT22;12904;50.088;11.414;2023-11-21T04:17:00;7.80;99.90
24814;DHT22;12904;50.088;11.414;2023-11-21T04:19:26;7.80;99.90
24814;DHT22;12904;50.088;11.414;2023-11-21T04:21:52;7.80;99.90
24814;DHT22;12904;50.088;11.414;2023-11-21T04:24:17;7.80;99.90
24814;DHT22;12904;50.088;11.414;2023-11-21T04:26:46;7.80;99.90
24814;DHT22;12904;50.088;11.414;2023-11-21T04:29:12;7.90;99.90
24814;DHT22;12904;50.088;11.414;2023-11-21T04:31:37;7.80;99.90
24814;DHT22;12904;50.088;11.414;2023-11-21T04:34:03;7.80;99.90
24814;DHT22;12904;50.088;11.414;2023-11-21T04:36:32;7.80;99.90
24814;DHT22;12904;50.088;11.414;2023-11-21T04:38:57;7.80;99.90
24814;DHT22;12904;50.088;11.414;2023-11-21T04:41:23;7.80;99.90
24814;DHT22;12904;50.088;11.414;2023-11-21T04:43:49;7.80;99.90
24814;DHT22;12904;50.088;11.414;2023-11-21T04:46:14;7.80;99.90
24814;DHT22;12904;50.088;11.414;2023-11-21T04:48:40;7.80;99.90
24814;DHT22;12904;50.088;11.414;2023-11-21T04:51:06;7.80;99.90
24814;DHT22;12904;50.088;11.414;2023-11-21T04:53:32;7.80;99.90
24814;DHT22;12904;50.088;11.414;2023-11-21T04:55:57;7.80;99.90
24814;DHT22;12904;50.088;11.414;2023-11-21T04:58:24;7.80;99.90
24814;DHT22;12904;50.088;11.414;2023-11-21T05:00:49;7.80;99.90
24814;DHT22;12904;50.088;11.414;2023-11-21T05:03:15;7.80;99.90
24814;DHT22;12904;50.088;11.414;2023-11-21T05:05:41;7.90;99.90
24814;DHT22;12904;50.088;11.414;2023-11-21T05:08:06;7.80;99.90
24814;DHT22;12904;50.088;11.414;2023-11-21T05:10:32;7.80;99.90
24814;DHT22;12904;50.088;11.414;2023-11-21T05:12:57;7.80;99.90
24814;DHT22;12904;50.088;11.414;2023-11-21T05:15:24;7.80;99.90
24814;DHT22;12904;50.088;11.414;2023-11-21T05:17:50;7.80;99.90
24814;DHT22;12904;50.088;11.414;2023-11-21T05:20:17;7.80;99.90
24814;DHT22;12904;50.088;11.414;2023-11-21T05:22:46;7.80;99.90
24814;DHT22;12904;50.088;11.414;2023-11-21T05:25:13;7.90;99.90
24814;DHT22;12904;50.088;11.414;2023-11-21T05:27:39;7.90;99.90
24814;DHT22;12904;50.088;11.414;2023-11-21T05:30:05;7.90;99.90
24814;DHT22;12904;50.088;11.414;2023-11-21T05:32:34;7.90;99.90
24814;DHT22;12904;50.088;11.414;2023-11-21T05:35:00;7.90;99.90
24814;DHT22;12904;50.088;11.414;2023-11-21T05:37:26;7.90;99.90
24814;DHT22;12904;50.088;11.414;2023-11-21T05:39:53;7.90;99.90
24814;DHT22;12904;50.088;11.414;2023-11-21T05:42:19;7.90;99.90
24814;DHT22;12904;50.088;11.414;2023-11-21T05:44:46;7.90;99.90
24814;DHT22;12904;50.088;11.414;2023-11-21T05:47:12;7.90;99.90
24814;DHT22;12904;50.088;11.414;2023-11-21T05:49:39;7.90;99.90
24814;DHT22;12904;50.088;11.414;2023-11-21T05:52:05;7.90;99.90
24814;DHT22;12904;50.088;11.414;2023-11-21T05:54:31;7.90;99.90
24814;DHT22;12904;50.088;11.414;2023-11-21T05:56:58;7.90;99.90
24814;DHT22;12904;50.088;11.414;2023-11-21T05:59:23;7.90;99.90
24814;DHT22;12904;50.088;11.414;2023-11-21T06:01:50;7.90;99.90
24814;DHT22;12904;50.088;11.414;2023-11-21T06:04:16;7.80;99.90
24814;DHT22;12904;50.088;11.414;2023-11-21T06:06:41;7.80;99.90
24814;DHT22;12904;50.088;11.414;2023-11-21T06:09:07;7.80;99.90
24814;DHT22;12904;50.088;11.414;2023-11-21T06:11:35;7.80;99.90
24814;DHT22;12904;50.088;11.414;2023-11-21T06:14:01;7.80;99.90
24814;DHT22;12904;50.088;11.414;2023-11-21T06:16:26;7.80;99.90
24814;DHT22;12904;50.088;11.414;2023-11-21T06:18:53;7.70;99.90
24814;DHT22;12904;50.088;11.414;2023-11-21T06:21:19;7.70;99.90
24814;DHT22;12904;50.088;11.414;2023-11-21T06:23:44;7.70;99.90
24814;DHT22;12904;50.088;11.414;2023-11-21T06:26:10;7.70;99.90
24814;DHT22;12904;50.088;11.414;2023-11-21T06:28:36;7.70;99.90
24814;DHT22;12904;50.088;11.414;2023-11-21T06:31:02;7.70;99.90
24814;DHT22;12904;50.088;11.414;2023-11-21T06:33:31;7.70;99.90
24814;DHT22;12904;50.088;11.414;2023-11-21T06:35:57;7.70;99.90
24814;DHT22;12904;50.088;11.414;2023-11-21T06:38:23;7.70;99.90
24814;DHT22;12904;50.088;11.414;2023-11-21T06:40:48;7.70;99.90
24814;DHT22;12904;50.088;11.414;2023-11-21T06:43:14;7.70;99.90
24814;DHT22;12904;50.088;11.414;2023-11-21T06:45:40;7.70;99.90
24814;DHT22;12904;50.088;11.414;2023-11-21T06:48:06;7.70;99.90
24814;DHT22;12904;50.088;11.414;2023-11-21T06:50:31;7.70;99.90
24814;DHT22;12904;50.088;11.414;2023-11-21T06:52:57;7.80;99.90
24814;DHT22;12904;50.088;11.414;2023-11-21T06:55:23;7.80;99.90
24814;DHT22;12904;50.088;11.414;2023-11-21T06:57:48;7.80;99.90
24814;DHT22;12904;50.088;11.414;2023-11-21T07:00:16;7.80;99.90
24814;DHT22;12904;50.088;11.414;2023-11-21T07:02:43;7.80;99.90
24814;DHT22;12904;50.088;11.414;2023-11-21T07:05:09;7.80;99.90
24814;DHT22;12904;50.088;11.414;2023-11-21T07:07:35;7.80;99.90
24814;DHT22;12904;50.088;11.414;2023-11-21T07:10:02;7.80;99.90
24814;DHT22;12904;50.088;11.414;2023-11-21T07:12:30;7.80;99.90
24814;DHT22;12904;50.088;11.414;2023-11-21T07:14:56;7.80;99.90
24814;DHT22;12904;50.088;11.414;2023-11-21T07:17:22;7.70;99.90
24814;DHT22;12904;50.088;11.414;2023-11-21T07:19:48;7.80;99.90
24814;DHT22;12904;50.088;11.414;2023-11-21T07:22:15;7.80;99.90
24814;DHT22;12904;50.088;11.414;2023-11-21T07:24:51;7.70;99.90
24814;DHT22;12904;50.088;11.414;2023-11-21T07:27:17;7.80;99.90
24814;DHT22;12904;50.088;11.414;2023-11-21T07:29:43;7.80;99.90
24814;DHT22;12904;50.088;11.414;2023-11-21T07:32:08;7.80;99.90
24814;DHT22;12904;50.088;11.414;2023-11-21T07:34:35;7.80;99.90
24814;DHT22;12904;50.088;11.414;2023-11-21T07:37:01;7.90;99.90
24814;DHT22;12904;50.088;11.414;2023-11-21T07:39:28;7.90;99.90
24814;DHT22;12904;50.088;11.414;2023-11-21T07:41:53;7.90;99.90
24814;DHT22;12904;50.088;11.414;2023-11-21T07:44:19;7.90;99.90
24814;DHT22;12904;50.088;11.414;2023-11-21T07:46:45;7.90;99.90
24814;DHT22;12904;50.088;11.414;2023-11-21T07:49:12;8.00;99.90
24814;DHT22;12904;50.088;11.414;2023-11-21T07:51:41;8.10;99.90
24814;DHT22;12904;50.088;11.414;2023-11-21T07:54:07;8.10;99.90
24814;DHT22;12904;50.088;11.414;2023-11-21T07:56:33;8.20;99.90
24814;DHT22;12904;50.088;11.414;2023-11-21T07:58:58;8.20;99.90
24814;DHT22;12904;50.088;11.414;2023-11-21T08:01:24;8.20;99.90
24814;DHT22;12904;50.088;11.414;2023-11-21T08:03:50;8.30;99.90
24814;DHT22;12904;50.088;11.414;2023-11-21T08:06:18;8.30;99.90
24814;DHT22;12904;50.088;11.414;2023-11-21T08:08:43;8.30;99.90
24814;DHT22;12904;50.088;11.414;2023-11-21T08:11:09;8.30;99.90
24814;DHT22;12904;50.088;11.414;2023-11-21T08:13:36;8.30;99.90
24814;DHT22;12904;50.088;11.414;2023-11-21T08:16:02;8.30;99.90
24814;DHT22;12904;50.088;11.414;2023-11-21T08:18:29;8.30;99.90
24814;DHT22;12904;50.088;11.414;2023-11-21T08:20:55;8.30;99.90
24814;DHT22;12904;50.088;11.414;2023-11-21T08:23:22;8.30;99.90
24814;DHT22;12904;50.088;11.414;2023-11-21T08:25:51;8.30;99.90
24814;DHT22;12904;50.088;11.414;2023-11-21T08:28:17;8.40;99.90
24814;DHT22;12904;50.088;11.414;2023-11-21T08:30:42;8.40;99.90
24814;DHT22;12904;50.088;11.414;2023-11-21T08:33:08;8.40;99.90
24814;DHT22;12904;50.088;11.414;2023-11-21T08:35:34;8.40;99.90
24814;DHT22;12904;50.088;11.414;2023-11-21T08:38:01;8.50;99.90
24814;DHT22;12904;50.088;11.414;2023-11-21T08:40:27;8.40;99.90
24814;DHT22;12904;50.088;11.414;2023-11-21T08:42:53;8.40;99.90
24814;DHT22;12904;50.088;11.414;2023-11-21T08:45:20;8.50;99.90
24814;DHT22;12904;50.088;11.414;2023-11-21T08:47:47;8.50;99.90
24814;DHT22;12904;50.088;11.414;2023-11-21T08:50:13;8.60;99.90
24814;DHT22;12904;50.088;11.414;2023-11-21T08:52:39;8.60;99.90
24814;DHT22;12904;50.088;11.414;2023-11-21T08:55:06;8.60;99.90
24814;DHT22;12904;50.088;11.414;2023-11-21T08:57:38;8.70;99.90
24814;DHT22;12904;50.088;11.414;2023-11-21T09:00:05;8.60;99.90
24814;DHT22;12904;50.088;11.414;2023-11-21T09:02:37;8.60;99.90
24814;DHT22;12904;50.088;11.414;2023-11-21T09:05:04;8.70;99.90
24814;DHT22;12904;50.088;11.414;2023-11-21T09:07:30;8.70;99.90
24814;DHT22;12904;50.088;11.414;2023-11-21T09:09:56;8.80;99.90
24814;DHT22;12904;50.088;11.414;2023-11-21T09:12:21;8.90;99.90
24814;DHT22;12904;50.088;11.414;2023-11-21T09:14:47;8.90;99.90
24814;DHT22;12904;50.088;11.414;2023-11-21T09:17:15;8.90;99.90
24814;DHT22;12904;50.088;11.414;2023-11-21T09:19:41;9.00;99.90
24814;DHT22;12904;50.088;11.414;2023-11-21T09:22:07;9.00;99.90
24814;DHT22;12904;50.088;11.414;2023-11-21T09:24:33;9.00;99.90
24814;DHT22;12904;50.088;11.414;2023-11-21T09:27:00;9.00;99.90
24814;DHT22;12904;50.088;11.414;2023-11-21T09:29:26;9.00;99.90
24814;DHT22;12904;50.088;11.414;2023-11-21T09:31:52;8.90;99.90
24814;DHT22;12904;50.088;11.414;2023-11-21T09:34:17;8.80;99.90
24814;DHT22;12904;50.088;11.414;2023-11-21T09:36:46;8.70;99.90
24814;DHT22;12904;50.088;11.414;2023-11-21T09:39:13;8.70;99.90
24814;DHT22;12904;50.088;11.414;2023-11-21T09:41:44;8.70;99.90
24814;DHT22;12904;50.088;11.414;2023-11-21T09:44:13;8.70;99.90
24814;DHT22;12904;50.088;11.414;2023-11-21T09:46:43;8.80;99.90
24814;DHT22;12904;50.088;11.414;2023-11-21T09:49:09;9.10;99.90
24814;DHT22;12904;50.088;11.414;2023-11-21T09:51:43;9.70;99.90
24814;DHT22;12904;50.088;11.414;2023-11-21T09:54:10;10.50;99.90
24814;DHT22;12904;50.088;11.414;2023-11-21T09:56:38;11.10;99.90
24814;DHT22;12904;50.088;11.414;2023-11-21T09:59:04;11.50;99.90
24814;DHT22;12904;50.088;11.414;2023-11-21T10:01:33;11.90;99.90
24814;DHT22;12904;50.088;11.414;2023-11-21T10:04:01;12.20;99.90
24814;DHT22;12904;50.088;11.414;2023-11-21T10:06:26;12.60;99.90
24814;DHT22;12904;50.088;11.414;2023-11-21T10:08:54;12.60;99.90
24814;DHT22;12904;50.088;11.414;2023-11-21T10:11:24;12.30;99.90
24814;DHT22;12904;50.088;11.414;2023-11-21T10:13:54;12.00;99.90
24814;DHT22;12904;50.088;11.414;2023-11-21T10:16:23;11.80;99.90
24814;DHT22;12904;50.088;11.414;2023-11-21T10:18:53;12.00;99.90
24814;DHT22;12904;50.088;11.414;2023-11-21T10:21:21;12.30;99.90
24814;DHT22;12904;50.088;11.414;2023-11-21T10:23:47;12.60;99.90
24814;DHT22;12904;50.088;11.414;2023-11-21T10:26:13;12.70;99.90
24814;DHT22;12904;50.088;11.414;2023-11-21T10:29:02;12.70;99.90
24814;DHT22;12904;50.088;11.414;2023-11-21T10:31:31;12.70;99.90
24814;DHT22;12904;50.088;11.414;2023-11-21T10:34:15;12.60;99.90
24814;DHT22;12904;50.088;11.414;2023-11-21T10:36:41;12.30;99.90
24814;DHT22;12904;50.088;11.414;2023-11-21T10:39:06;12.10;99.90
24814;DHT22;12904;50.088;11.414;2023-11-21T10:41:33;12.20;99.90
24814;DHT22;12904;50.088;11.414;2023-11-21T10:43:59;12.30;99.90
24814;DHT22;12904;50.088;11.414;2023-11-21T10:46:25;12.50;99.90
24814;DHT22;12904;50.088;11.414;2023-11-21T10:48:55;12.50;99.90
24814;DHT22;12904;50.088;11.414;2023-11-21T10:51:22;12.60;99.90
24814;DHT22;12904;50.088;11.414;2023-11-21T10:53:51;12.80;99.90
24814;DHT22;12904;50.088;11.414;2023-11-21T10:56:18;12.80;99.90
24814;DHT22;12904;50.088;11.414;2023-11-21T10:58:45;12.70;99.90
24814;DHT22;12904;50.088;11.414;2023-11-21T11:01:11;12.60;99.90
24814;DHT22;12904;50.088;11.414;2023-11-21T11:03:40;12.50;99.90
24814;DHT22;12904;50.088;11.414;2023-11-21T11:06:07;12.50;99.90
24814;DHT22;12904;50.088;11.414;2023-11-21T11:08:37;12.50;99.90
24814;DHT22;12904;50.088;11.414;2023-11-21T11:11:07;12.60;99.90
24814;DHT22;12904;50.088;11.414;2023-11-21T11:13:34;12.70;99.90
24814;DHT22;12904;50.088;11.414;2023-11-21T11:16:02;12.80;99.90
24814;DHT22;12904;50.088;11.414;2023-11-21T11:18:29;12.80;99.90
24814;DHT22;12904;50.088;11.414;2023-11-21T11:21:45;12.70;99.90
24814;DHT22;12904;50.088;11.414;2023-11-21T11:23:54;12.50;99.90
24814;DHT22;12904;50.088;11.414;2023-11-21T11:37:19;10.80;99.90
24814;DHT22;12904;50.088;11.414;2023-11-21T11:39:45;10.70;99.90
24814;DHT22;12904;50.088;11.414;2023-11-21T11:42:15;10.70;99.90
24814;DHT22;12904;50.088;11.414;2023-11-21T11:47:24;10.70;99.90
24814;DHT22;12904;50.088;11.414;2023-11-21T11:50:11;10.70;99.90
24814;DHT22;12904;50.088;11.414;2023-11-21T11:52:46;10.80;99.90
24814;DHT22;12904;50.088;11.414;2023-11-21T11:55:14;10.90;99.90
24814;DHT22;12904;50.088;11.414;2023-11-21T11:57:44;10.90;99.90
24814;DHT22;12904;50.088;11.414;2023-11-21T12:02:44;10.90;99.90
24814;DHT22;12904;50.088;11.414;2023-11-21T12:05:20;10.80;99.90
24814;DHT22;12904;50.088;11.414;2023-11-21T12:08:02;10.70;99.90
24814;DHT22;12904;50.088;11.414;2023-11-21T12:10:30;10.70;99.90
24814;DHT22;12904;50.088;11.414;2023-11-21T12:12:57;10.60;99.90
24814;DHT22;12904;50.088;11.414;2023-11-21T12:15:24;10.60;99.90
24814;DHT22;12904;50.088;11.414;2023-11-21T12:17:51;10.50;99.90
24814;DHT22;12904;50.088;11.414;2023-11-21T12:20:21;10.50;99.90
24814;DHT22;12904;50.088;11.414;2023-11-21T12:22:51;10.50;99.90
24814;DHT22;12904;50.088;11.414;2023-11-21T12:25:19;10.40;99.90
24814;DHT22;12904;50.088;11.414;2023-11-21T12:27:46;10.30;99.90
24814;DHT22;12904;50.088;11.414;2023-11-21T12:30:12;10.20;99.90
24814;DHT22;12904;50.088;11.414;2023-11-21T12:32:43;10.20;99.90
24814;DHT22;12904;50.088;11.414;2023-11-21T12:35:10;10.10;99.90
24814;DHT22;12904;50.088;11.414;2023-11-21T12:37:40;10.00;99.90
24814;DHT22;12904;50.088;11.414;2023-11-21T12:40:07;9.90;99.90
24814;DHT22;12904;50.088;11.414;2023-11-21T12:42:45;9.90;99.90
24814;DHT22;12904;50.088;11.414;2023-11-21T12:48:01;9.80;99.90
24814;DHT22;12904;50.088;11.414;2023-11-21T12:50:30;9.80;99.90
24814;DHT22;12904;50.088;11.414;2023-11-21T12:53:10;9.70;99.90
24814;DHT22;12904;50.088;11.414;2023-11-21T12:55:38;9.70;99.90
24814;DHT22;12904;50.088;11.414;2023-11-21T12:58:08;9.70;99.90
24814;DHT22;12904;50.088;11.414;2023-11-21T13:00:45;9.60;99.90
24814;DHT22;12904;50.088;11.414;2023-11-21T13:03:13;9.60;99.90
24814;DHT22;12904;50.088;11.414;2023-11-21T13:05:43;9.60;99.90
24814;DHT22;12904;50.088;11.414;2023-11-21T13:08:12;9.60;99.90
24814;DHT22;12904;50.088;11.414;2023-11-21T13:10:43;9.60;99.90
24814;DHT22;12904;50.088;11.414;2023-11-21T13:13:13;9.60;99.90
24814;DHT22;12904;50.088;11.414;2023-11-21T13:15:48;9.60;99.90
24814;DHT22;12904;50.088;11.414;2023-11-21T13:18:14;9.70;99.90
24814;DHT22;12904;50.088;11.414;2023-11-21T13:20:41;9.80;99.90
24814;DHT22;12904;50.088;11.414;2023-11-21T13:23:09;9.90;99.90
24814;DHT22;12904;50.088;11.414;2023-11-21T13:25:38;9.90;99.90
24814;DHT22;12904;50.088;11.414;2023-11-21T13:28:06;9.90;99.90
24814;DHT22;12904;50.088;11.414;2023-11-21T13:30:32;10.00;99.90
24814;DHT22;12904;50.088;11.414;2023-11-21T13:33:02;10.00;99.90
24814;DHT22;12904;50.088;11.414;2023-11-21T13:35:35;10.00;99.90
24814;DHT22;12904;50.088;11.414;2023-11-21T13:38:11;10.00;99.90
24814;DHT22;12904;50.088;11.414;2023-11-21T13:40:39;10.00;99.90
24814;DHT22;12904;50.088;11.414;2023-11-21T13:43:16;10.00;99.90
24814;DHT22;12904;50.088;11.414;2023-11-21T13:45:44;9.90;99.90
24814;DHT22;12904;50.088;11.414;2023-11-21T13:48:11;9.90;99.90
24814;DHT22;12904;50.088;11.414;2023-11-21T13:50:39;9.80;99.90
24814;DHT22;12904;50.088;11.414;2023-11-21T13:53:11;9.70;99.90
24814;DHT22;12904;50.088;11.414;2023-11-21T13:55:48;9.70;99.90
24814;DHT22;12904;50.088;11.414;2023-11-21T13:58:15;9.70;99.90
24814;DHT22;12904;50.088;11.414;2023-11-21T14:00:48;9.70;99.90
24814;DHT22;12904;50.088;11.414;2023-11-21T14:03:25;9.70;99.90
24814;DHT22;12904;50.088;11.414;2023-11-21T14:06:03;9.60;99.90
24814;DHT22;12904;50.088;11.414;2023-11-21T14:08:34;9.60;99.90
24814;DHT22;12904;50.088;11.414;2023-11-21T14:11:00;9.50;99.90
24814;DHT22;12904;50.088;11.414;2023-11-21T14:13:26;9.30;99.90
24814;DHT22;12904;50.088;11.414;2023-11-21T14:15:52;9.20;99.90
24814;DHT22;12904;50.088;11.414;2023-11-21T14:18:23;9.20;99.90
24814;DHT22;12904;50.088;11.414;2023-11-21T14:20:56;9.10;99.90
24814;DHT22;12904;50.088;11.414;2023-11-21T14:23:21;9.00;99.90
24814;DHT22;12904;50.088;11.414;2023-11-21T14:25:49;9.00;99.90
24814;DHT22;12904;50.088;11.414;2023-11-21T14:28:15;8.90;99.90
24814;DHT22;12904;50.088;11.414;2023-11-21T14:30:41;8.90;99.90
24814;DHT22;12904;50.088;11.414;2023-11-21T14:33:08;8.90;99.90
24814;DHT22;12904;50.088;11.414;2023-11-21T14:35:35;9.00;99.90
24814;DHT22;12904;50.088;11.414;2023-11-21T14:38:01;9.00;99.90
24814;DHT22;12904;50.088;11.414;2023-11-21T14:40:32;8.90;99.90
24814;DHT22;12904;50.088;11.414;2023-11-21T14:43:02;8.80;99.90
24814;DHT22;12904;50.088;11.414;2023-11-21T14:45:34;8.80;99.90
24814;DHT22;12904;50.088;11.414;2023-11-21T14:48:00;8.70;99.90
24814;DHT22;12904;50.088;11.414;2023-11-21T14:50:34;8.70;99.90
24814;DHT22;12904;50.088;11.414;2023-11-21T14:53:11;8.70;99.90
24814;DHT22;12904;50.088;11.414;2023-11-21T14:55:38;8.60;99.90
24814;DHT22;12904;50.088;11.414;2023-11-21T14:58:19;8.50;99.90
24814;DHT22;12904;50.088;11.414;2023-11-21T15:00:56;8.40;99.90
24814;DHT22;12904;50.088;11.414;2023-11-21T15:03:27;8.40;99.90
24814;DHT22;12904;50.088;11.414;2023-11-21T15:06:02;8.30;99.90
24814;DHT22;12904;50.088;11.414;2023-11-21T15:09:04;8.30;99.90
24814;DHT22;12904;50.088;11.414;2023-11-21T15:11:33;8.30;99.90
24814;DHT22;12904;50.088;11.414;2023-11-21T15:13:59;8.30;99.90
24814;DHT22;12904;50.088;11.414;2023-11-21T15:16:26;8.20;99.90
24814;DHT22;12904;50.088;11.414;2023-11-21T15:18:52;8.20;99.90
24814;DHT22;12904;50.088;11.414;2023-11-21T15:21:19;8.20;99.90
24814;DHT22;12904;50.088;11.414;2023-11-21T15:23:47;8.10;99.90
24814;DHT22;12904;50.088;11.414;2023-11-21T15:26:12;8.00;99.90
24814;DHT22;12904;50.088;11.414;2023-11-21T15:28:38;8.00;99.90
24814;DHT22;12904;50.088;11.414;2023-11-21T15:31:04;8.00;99.90
24814;DHT22;12904;50.088;11.414;2023-11-21T15:33:30;7.90;99.90
24814;DHT22;12904;50.088;11.414;2023-11-21T15:35:56;8.00;99.90
24814;DHT22;12904;50.088;11.414;2023-11-21T15:38:23;8.00;99.90
24814;DHT22;12904;50.088;11.414;2023-11-21T15:40:49;8.10;99.90
24814;DHT22;12904;50.088;11.414;2023-11-21T15:43:15;8.20;99.90
24814;DHT22;12904;50.088;11.414;2023-11-21T15:45:41;8.20;99.90
24814;DHT22;12904;50.088;11.414;2023-11-21T15:48:07;8.30;99.90
24814;DHT22;12904;50.088;11.414;2023-11-21T15:50:34;8.30;99.90